Time;durP1;ratioP1;P1;durP2;ratioP2;P2;SDS_P1;SDS_P2;PMS_P1;PMS_P2;Temp;Humidity;BMP_temperature;BMP_pressure;BME280_temperature;BME280_humidity;BME280_pressure;Samples;Min_cycle;Max_cycle;Signal;HPM_P1;HPM_P2
2022/06/17 00:02:17;;;;;;;9.65;6.45;;;;;;;21.05;52.28;102419.53;5226099;28;20431;-43
2022/06/17 00:04:49;;;;;;;10.27;6.50;;;;;;;21.04;52.16;102425.09;5233292;28;20550;-43
2022/06/17 00:07:22;;;;;;;8.53;6.53;;;;;;;21.03;52.08;102423.41;5230988;28;20986;-44
2022/06/17 00:09:54;;;;;;;13.45;7.03;;;;;;;21.04;52.03;102430.47;5233348;28;20435;-43
2022/06/17 00:12:28;;;;;;;12.05;6.65;;;;;;;21.04;51.87;102417.88;5231055;28;20422;-45
2022/06/17 00:15:15;;;;;;;11.13;6.43;;;;;;;20.99;51.63;102406.81;5235983;28;21202;-45
2022/06/17 00:17:51;;;;;;;10.53;6.20;;;;;;;20.98;51.63;102407.84;5234247;28;20788;-47
2022/06/17 00:20:25;;;;;;;12.77;6.50;;;;;;;20.95;51.42;102414.41;5235379;28;20396;-42
2022/06/17 00:22:58;;;;;;;15.30;6.55;;;;;;;20.91;51.10;102417.66;5231792;28;20995;-44
2022/06/17 00:25:34;;;;;;;18.42;6.05;;;;;;;20.66;51.24;102382.94;5232369;28;20426;-44
2022/06/17 00:28:12;;;;;;;10.25;5.40;;;;;;;20.86;50.84;102410.13;5232371;28;20510;-43
2022/06/17 00:30:46;;;;;;;8.73;4.80;;;;;;;20.80;50.64;102404.63;5232817;28;20952;-43
2022/06/17 00:33:20;;;;;;;12.73;5.18;;;;;;;20.82;50.45;102402.63;5233886;28;21013;-44
2022/06/17 00:35:54;;;;;;;10.15;5.15;;;;;;;20.81;50.19;102408.97;5236428;28;20986;-44
2022/06/17 00:38:30;;;;;;;8.48;4.82;;;;;;;20.79;49.97;102400.28;5234811;28;20489;-43
2022/06/17 00:41:15;;;;;;;10.70;5.03;;;;;;;20.81;49.62;102411.66;5233593;28;20398;-42
2022/06/17 00:43:52;;;;;;;8.77;5.60;;;;;;;20.80;49.48;102404.63;5233587;28;20419;-45
2022/06/17 00:46:33;;;;;;;14.55;4.72;;;;;;;20.80;49.29;102404.63;5232626;28;20882;-44
2022/06/17 00:49:13;;;;;;;12.27;5.22;;;;;;;20.16;49.20;102309.09;5233074;28;20469;-43
2022/06/17 00:51:52;;;;;;;7.67;4.83;;;;;;;20.67;49.06;102395.31;5233181;28;20993;-45
2022/06/17 00:54:29;;;;;;;13.75;5.13;;;;;;;20.76;48.96;102406.03;5237392;28;20445;-43
2022/06/17 00:57:01;;;;;;;11.47;4.97;;;;;;;20.68;48.73;102402.34;5231256;28;20433;-45
2022/06/17 00:59:37;;;;;;;16.00;6.03;;;;;;;20.70;48.66;102413.75;5235652;28;20442;-43
2022/06/17 01:02:10;;;;;;;10.40;5.28;;;;;;;20.68;48.61;102410.41;5232150;28;20410;-43
2022/06/17 01:04:48;;;;;;;7.97;4.00;;;;;;;20.64;48.61;102410.97;5234655;28;20425;-43
2022/06/17 01:07:25;;;;;;;11.05;5.43;;;;;;;20.59;48.43;102407.97;5234936;28;20501;-43
2022/06/17 01:10:01;;;;;;;11.95;5.47;;;;;;;20.53;48.50;102414.88;5234915;28;20412;-44
2022/06/17 01:12:40;;;;;;;15.57;6.28;;;;;;;20.47;48.32;102415.56;5231857;28;20429;-43
2022/06/17 01:15:19;;;;;;;9.05;5.40;;;;;;;20.16;48.58;102378.84;5228966;28;20516;-44
2022/06/17 01:17:52;;;;;;;11.38;5.13;;;;;;;20.36;48.54;102403.38;5231645;28;20430;-42
2022/06/17 01:20:27;;;;;;;10.60;4.97;;;;;;;20.31;48.50;102404.91;5235372;28;20408;-43
2022/06/17 01:23:08;;;;;;;9.02;5.45;;;;;;;19.65;48.82;102327.44;5231868;28;20430;-43
2022/06/17 01:25:44;;;;;;;9.38;5.85;;;;;;;20.20;48.88;102414.22;5225238;28;20515;-42
2022/06/17 01:28:18;;;;;;;7.70;5.75;;;;;;;20.14;48.90;102396.97;5232635;28;20540;-44
2022/06/17 01:30:54;;;;;;;14.50;6.20;;;;;;;20.12;49.02;102404.34;5232533;28;20418;-44
2022/06/17 01:33:30;;;;;;;11.15;6.00;;;;;;;20.07;49.03;102397.81;5230312;28;20408;-43
2022/06/17 01:36:06;;;;;;;9.38;5.88;;;;;;;20.02;49.26;102396.50;5233606;28;20600;-42
2022/06/17 01:38:43;;;;;;;9.13;6.10;;;;;;;19.94;49.47;102404.56;5225456;28;20423;-44
2022/06/17 01:41:17;;;;;;;13.65;6.00;;;;;;;19.95;49.43;102392.03;5231591;28;20422;-43
2022/06/17 01:43:53;;;;;;;11.10;6.53;;;;;;;19.79;49.53;102372.31;5230791;28;20991;-44
2022/06/17 01:46:30;;;;;;;9.70;6.00;;;;;;;19.88;49.55;102382.97;5233486;28;20446;-44
2022/06/17 01:49:07;;;;;;;10.30;6.53;;;;;;;19.81;49.80;102381.00;5235904;28;20406;-42
2022/06/17 01:51:46;;;;;;;8.57;5.90;;;;;;;19.74;49.80;102366.63;5226935;28;20572;-42
2022/06/17 01:54:24;;;;;;;10.90;6.30;;;;;;;19.75;50.01;102370.97;5230605;28;20842;-43
2022/06/17 01:57:00;;;;;;;13.95;6.28;;;;;;;19.68;50.25;102375.34;5233241;28;20430;-45
2022/06/17 01:59:38;;;;;;;11.20;6.10;;;;;;;19.74;50.21;102381.88;5232881;28;20440;-42
2022/06/17 02:02:13;;;;;;;12.40;6.43;;;;;;;19.73;50.15;102380.22;5225354;28;20895;-43
2022/06/17 02:04:53;;;;;;;10.02;6.05;;;;;;;19.40;50.19;102331.19;5228515;28;21463;-42
2022/06/17 02:07:40;;;;;;;10.18;5.82;;;;;;;19.68;50.12;102379.88;5231194;28;20765;-44
2022/06/17 02:10:14;;;;;;;10.13;6.10;;;;;;;19.70;50.27;102388.59;5228421;28;20424;-45
2022/06/17 02:12:47;;;;;;;12.45;6.93;;;;;;;19.67;50.37;102392.44;5229120;28;20431;-43
2022/06/17 02:15:20;;;;;;;13.98;6.25;;;;;;;19.59;50.39;102379.88;5230825;28;20513;-42
2022/06/17 02:17:54;;;;;;;9.77;6.45;;;;;;;19.65;50.35;102393.63;5229379;28;20510;-42
2022/06/17 02:20:27;;;;;;;10.50;6.78;;;;;;;19.62;50.13;102388.56;5230048;28;20563;-44
2022/06/17 02:23:01;;;;;;;8.75;5.88;;;;;;;19.57;50.48;102375.69;5231812;28;20890;-43
2022/06/17 02:25:40;;;;;;;7.80;6.10;;;;;;;19.62;50.50;102394.78;5226975;28;20433;-43
2022/06/17 02:28:13;;;;;;;8.47;5.97;;;;;;;19.61;50.38;102389.59;5229382;28;20429;-44
2022/06/17 02:30:49;;;;;;;13.60;6.32;;;;;;;19.58;50.41;102394.28;5231027;28;20423;-42
2022/06/17 02:33:23;;;;;;;11.20;6.10;;;;;;;19.54;50.56;102386.75;5233147;28;20443;-42
2022/06/17 02:35:59;;;;;;;10.75;6.15;;;;;;;19.50;50.52;102386.25;5232206;28;20431;-43
2022/06/17 02:38:36;;;;;;;9.75;5.90;;;;;;;19.49;50.63;102386.44;5227315;28;20493;-42
2022/06/17 02:41:16;;;;;;;11.13;6.10;;;;;;;19.46;50.39;102384.09;5227495;28;20474;-43
2022/06/17 02:43:54;;;;;;;12.40;5.63;;;;;;;19.44;50.59;102378.06;5230385;28;20526;-43
2022/06/17 02:46:30;;;;;;;9.25;5.80;;;;;;;19.38;50.68;102368.03;5233133;28;20418;-42
2022/06/17 02:49:06;;;;;;;9.18;5.65;;;;;;;19.43;50.83;102368.38;5231611;28;20928;-44
2022/06/17 02:51:41;;;;;;;13.25;5.72;;;;;;;19.39;50.59;102356.28;5228045;28;20414;-43
2022/06/17 02:54:20;;;;;;;9.07;5.55;;;;;;;19.35;50.61;102367.38;5230906;28;20471;-43
2022/06/17 02:56:57;;;;;;;12.13;6.70;;;;;;;19.48;50.45;102384.75;5227304;28;20464;-46
2022/06/17 02:59:35;;;;;;;10.10;5.70;;;;;;;19.46;50.33;102379.56;5228714;28;20419;-43
2022/06/17 03:02:22;;;;;;;8.55;5.78;;;;;;;19.53;50.42;102379.72;5226688;28;20896;-44
2022/06/17 03:04:55;;;;;;;8.60;6.10;;;;;;;19.54;50.32;102376.03;5228600;28;20489;-42
2022/06/17 03:07:31;;;;;;;9.13;5.70;;;;;;;19.56;50.41;102371.34;5233192;28;20509;-42
2022/06/17 03:10:06;;;;;;;10.90;6.03;;;;;;;19.63;50.21;102375.00;5227850;28;20463;-43
2022/06/17 03:12:41;;;;;;;11.20;5.80;;;;;;;19.61;50.16;102369.00;5227133;28;20414;-44
2022/06/17 03:15:17;;;;;;;9.15;5.63;;;;;;;19.71;50.10;102366.97;5233060;28;20404;-46
2022/06/17 03:17:50;;;;;;;10.15;5.63;;;;;;;19.74;50.08;102366.63;5231025;28;20431;-43
2022/06/17 03:20:29;;;;;;;11.38;5.85;;;;;;;19.55;49.87;102335.66;5227484;28;20477;-41
2022/06/17 03:23:09;;;;;;;8.48;5.70;;;;;;;19.74;49.95;102363.94;5221301;28;20427;-42
2022/06/17 03:25:47;;;;;;;10.07;5.45;;;;;;;19.83;49.84;102374.66;5227382;28;20446;-42
2022/06/17 03:28:27;;;;;;;10.83;5.53;;;;;;;19.84;49.71;102361.06;5228417;28;20794;-43
2022/06/17 03:31:05;;;;;;;10.23;5.43;;;;;;;19.93;49.60;102368.06;5228347;28;20422;-43
2022/06/17 03:33:43;;;;;;;8.82;5.28;;;;;;;19.87;49.71;102343.78;5226543;28;20912;-43
2022/06/17 03:36:23;;;;;;;9.32;6.28;;;;;;;20.02;49.66;102363.50;5232225;28;20408;-43
2022/06/17 03:38:59;;;;;;;8.68;5.30;;;;;;;19.99;49.60;102353.13;5232188;28;20846;-45
2022/06/17 03:41:37;;;;;;;8.27;5.35;;;;;;;20.03;49.47;102370.50;5230045;28;20883;-43
2022/06/17 03:44:15;;;;;;;9.63;5.75;;;;;;;20.13;49.53;102365.78;5226301;28;20490;-44
2022/06/17 03:46:53;;;;;;;8.63;5.75;;;;;;;20.14;49.38;102363.94;5228325;28;21769;-42
2022/06/17 03:49:34;;;;;;;6.47;4.65;;;;;;;20.20;49.47;102372.13;5231899;28;20423;-42
2022/06/17 03:52:19;;;;;;;9.05;4.95;;;;;;;20.20;49.21;102374.81;5226141;28;20411;-43
2022/06/17 03:54:53;;;;;;;10.35;5.30;;;;;;;20.29;49.15;102380.13;5234971;28;20427;-48
2022/06/17 03:57:27;;;;;;;7.82;4.80;;;;;;;20.24;49.14;102353.81;5240354;28;20411;-46
2022/06/17 04:00:01;;;;;;;10.40;5.65;;;;;;;20.37;48.96;102374.69;5230490;28;20414;-45
2022/06/17 04:02:33;;;;;;;9.57;5.43;;;;;;;20.42;48.89;102391.94;5212147;28;20420;-45
2022/06/17 04:05:09;;;;;;;11.90;4.65;;;;;;;19.88;48.79;102291.81;5212564;28;20411;-43
2022/06/17 04:07:41;;;;;;;6.75;4.55;;;;;;;20.46;48.61;102371.78;5213892;28;20410;-43
2022/06/17 04:10:17;;;;;;;9.50;5.57;;;;;;;20.56;48.57;102376.94;5214340;28;20941;-42
2022/06/17 04:12:52;;;;;;;5.83;4.20;;;;;;;20.64;48.37;102382.25;5215921;28;21663;-44
2022/06/17 04:15:48;;;;;;;8.43;5.25;;;;;;;20.67;48.14;102373.84;5210092;28;21631;-43
2022/06/17 04:18:21;;;;;;;6.97;4.70;;;;;;;20.70;48.28;102368.13;5218132;28;20429;-42
2022/06/17 04:20:55;;;;;;;6.85;4.38;;;;;;;20.66;48.02;102364.13;5210570;28;20865;-43
2022/06/17 04:23:33;;;;;;;10.07;4.63;;;;;;;20.78;47.92;102380.66;5212472;28;20876;-44
2022/06/17 04:26:12;;;;;;;12.13;4.03;;;;;;;20.80;47.78;102375.09;5211743;28;20473;-40
2022/06/17 04:28:49;;;;;;;10.48;4.57;;;;;;;20.87;47.58;102374.22;5212314;28;20963;-44
2022/06/17 04:31:25;;;;;;;8.98;4.40;;;;;;;20.83;47.53;102346.03;5215754;28;20429;-44
2022/06/17 04:34:06;;;;;;;10.60;4.80;;;;;;;20.95;47.40;102362.56;5210712;28;20417;-43
2022/06/17 04:36:43;;;;;;;8.98;4.70;;;;;;;20.94;47.25;102359.03;5219610;28;20419;-43
2022/06/17 04:39:25;;;;;;;10.57;4.90;;;;;;;20.99;47.14;102350.41;5216730;28;20422;-43
2022/06/17 04:42:02;;;;;;;8.57;4.45;;;;;;;20.83;46.88;102318.34;5223751;28;20416;-43
2022/06/17 04:44:35;;;;;;;8.77;4.38;;;;;;;21.12;47.00;102353.34;5220196;28;20487;-39
2022/06/17 04:47:12;;;;;;;8.45;4.18;;;;;;;21.23;46.75;102351.22;5215279;28;20457;-42
2022/06/17 04:49:49;;;;;;;7.75;4.10;;;;;;;21.09;46.83;102334.91;5216831;28;20838;-43
2022/06/17 04:52:28;;;;;;;7.90;4.55;;;;;;;21.30;46.52;102341.38;5225094;28;20427;-43
2022/06/17 04:55:02;;;;;;;7.82;4.35;;;;;;;21.33;46.34;102347.22;5215394;28;20412;-43
2022/06/17 04:57:35;;;;;;;9.45;4.85;;;;;;;21.10;46.32;102301.63;5215847;28;20493;-42
2022/06/17 05:00:15;;;;;;;9.07;4.93;;;;;;;21.39;46.01;102337.63;5221862;28;20429;-48
2022/06/17 05:02:49;;;;;;;10.95;4.82;;;;;;;21.47;46.08;102340.25;5242475;28;20545;-43
2022/06/17 05:05:29;;;;;;;8.18;4.45;;;;;;;21.48;45.97;102354.50;5245383;28;20471;-43
2022/06/17 05:08:04;;;;;;;9.50;4.53;;;;;;;21.59;45.76;102340.63;5244736;28;20422;-45
2022/06/17 05:10:41;;;;;;;8.18;4.43;;;;;;;21.72;45.56;102345.31;5235409;28;20931;-44
2022/06/17 05:13:20;;;;;;;6.57;4.83;;;;;;;21.83;45.56;102339.44;5236804;28;20423;-45
2022/06/17 05:15:54;;;;;;;6.82;3.85;;;;;;;21.93;45.24;102340.00;5239934;28;20522;-44
2022/06/17 05:18:28;;;;;;;7.80;4.00;;;;;;;21.95;45.06;102320.97;5238867;28;20414;-45
2022/06/17 05:21:00;;;;;;;7.78;4.22;;;;;;;22.17;45.07;102333.47;5238123;28;21054;-45
2022/06/17 05:23:33;;;;;;;10.38;5.13;;;;;;;22.22;44.86;102317.59;5235782;28;20957;-44
2022/06/17 05:26:05;;;;;;;8.57;4.03;;;;;;;22.04;44.55;102258.78;5230543;28;20810;-43
2022/06/17 05:28:38;;;;;;;7.75;4.50;;;;;;;22.63;44.21;102324.19;5236550;28;20450;-43
2022/06/17 05:31:14;;;;;;;6.72;4.10;;;;;;;22.97;43.94;102334.25;5242004;28;20865;-44
2022/06/17 05:33:49;;;;;;;10.38;3.72;;;;;;;23.31;43.71;102333.44;5234732;28;20798;-44
2022/06/17 05:36:22;;;;;;;8.90;4.10;;;;;;;23.51;43.28;102338.13;5243119;28;20406;-47
2022/06/17 05:38:54;;;;;;;6.85;3.92;;;;;;;23.54;43.18;102330.47;5243636;28;20414;-46
2022/06/17 05:41:27;;;;;;;9.30;4.88;;;;;;;23.41;43.10;102323.16;5238569;28;20443;-44
2022/06/17 05:43:59;;;;;;;9.65;4.55;;;;;;;23.33;43.08;102315.22;5238229;28;20463;-45
2022/06/17 05:46:32;;;;;;;6.60;4.50;;;;;;;23.20;43.03;102302.50;5238606;28;20418;-45
2022/06/17 05:49:05;;;;;;;5.70;3.85;;;;;;;23.22;43.07;102304.97;5240400;28;20497;-47
2022/06/17 05:51:38;;;;;;;14.95;5.13;;;;;;;23.26;42.99;102300.88;5233664;28;20421;-44
2022/06/17 05:54:10;;;;;;;8.43;4.53;;;;;;;23.12;43.01;102273.00;5244378;28;20982;-47
2022/06/17 05:56:43;;;;;;;6.63;4.83;;;;;;;23.27;42.78;102288.22;5237158;28;20831;-45
2022/06/17 05:59:17;;;;;;;8.30;4.35;;;;;;;23.32;42.50;102296.53;5229394;28;20412;-45
2022/06/17 06:01:49;;;;;;;8.35;4.68;;;;;;;23.33;42.79;102290.13;5237763;28;20474;-44
2022/06/17 06:04:23;;;;;;;9.50;4.85;;;;;;;23.38;42.61;102288.50;5240215;28;20554;-47
2022/06/17 06:06:55;;;;;;;8.27;4.95;;;;;;;23.50;42.42;102296.00;5236297;28;20448;-46
2022/06/17 06:09:28;;;;;;;9.52;5.57;;;;;;;23.63;42.42;102307.69;5246137;28;20422;-44
2022/06/17 06:12:00;;;;;;;7.60;4.82;;;;;;;23.71;42.27;102301.31;5236895;28;20411;-44
2022/06/17 06:14:33;;;;;;;7.18;4.25;;;;;;;23.79;42.00;102297.63;5238754;28;20494;-44
2022/06/17 06:17:06;;;;;;;9.18;5.07;;;;;;;23.81;41.93;102296.34;5237202;28;20493;-44
2022/06/17 06:19:40;;;;;;;11.00;4.65;;;;;;;23.89;41.71;102312.38;5244348;28;20421;-45
2022/06/17 06:22:12;;;;;;;6.70;4.05;;;;;;;24.00;41.59;102302.03;5238325;28;20425;-45
2022/06/17 06:24:45;;;;;;;7.05;4.20;;;;;;;23.86;41.49;102279.59;5240902;28;21023;-48
2022/06/17 06:27:17;;;;;;;10.32;4.75;;;;;;;23.99;41.26;102297.66;5246826;28;20483;-44
2022/06/17 06:29:49;;;;;;;10.23;4.82;;;;;;;24.10;41.41;102306.00;5244450;28;20497;-46
2022/06/17 06:32:22;;;;;;;14.00;4.53;;;;;;;24.28;41.12;102309.97;5247888;28;20841;-46
2022/06/17 06:34:56;;;;;;;8.00;4.10;;;;;;;24.53;40.83;102318.38;5239299;28;20575;-45
2022/06/17 06:37:29;;;;;;;9.63;4.25;;;;;;;24.91;40.51;102315.03;5237660;28;20423;-46
2022/06/17 06:40:01;;;;;;;10.23;4.40;;;;;;;25.56;39.80;102307.00;5240337;28;20474;-46
2022/06/17 06:42:34;;;;;;;14.45;4.32;;;;;;;25.98;39.28;102283.91;5243477;28;20909;-47
2022/06/17 06:45:11;;;;;;;8.45;4.30;;;;;;;26.39;38.83;102296.16;5229484;28;20421;-48
2022/06/17 06:47:44;;;;;;;8.77;4.43;;;;;;;26.64;38.46;102288.06;5221138;28;20520;-47
2022/06/17 06:50:27;;;;;;;9.68;4.25;;;;;;;26.89;38.10;102263.63;5236038;28;20432;-47
2022/06/17 06:52:59;;;;;;;9.30;4.20;;;;;;;27.45;37.75;102300.59;5235435;28;20549;-47
2022/06/17 06:55:34;;;;;;;11.95;4.28;;;;;;;27.65;37.45;102294.91;5227931;28;20410;-48
2022/06/17 06:58:11;;;;;;;9.43;4.72;;;;;;;27.69;37.39;102284.44;5230291;28;20410;-47
2022/06/17 07:00:47;;;;;;;9.27;4.50;;;;;;;27.81;37.14;102307.91;5229131;28;20427;-47
2022/06/17 07:03:20;;;;;;;6.53;3.95;;;;;;;27.66;37.09;102304.72;5232977;28;20427;-45
2022/06/17 07:05:59;;;;;;;9.70;3.70;;;;;;;27.68;37.15;102315.34;5235646;28;20475;-47
2022/06/17 07:08:35;;;;;;;13.48;4.43;;;;;;;27.92;36.99;102310.88;5229474;28;20782;-46
2022/06/17 07:11:11;;;;;;;9.88;4.72;;;;;;;28.08;36.81;102296.63;5229647;28;20420;-49
2022/06/17 07:13:43;;;;;;;9.52;4.18;;;;;;;28.76;36.17;102319.00;5232071;28;20436;-50
2022/06/17 07:16:16;;;;;;;8.93;3.78;;;;;;;29.43;35.60;102300.41;5228780;28;20428;-50
2022/06/17 07:18:49;;;;;;;13.88;5.05;;;;;;;30.16;34.98;102312.44;5213896;28;21021;-47
2022/06/17 07:21:22;;;;;;;12.17;4.53;;;;;;;30.77;34.58;102309.91;5231445;28;20535;-48
2022/06/17 07:23:55;;;;;;;12.23;4.00;;;;;;;31.36;34.13;102312.13;5226441;28;20661;-49
2022/06/17 07:26:28;;;;;;;9.52;4.40;;;;;;;31.87;33.86;102312.75;5229199;28;20949;-49
2022/06/17 07:29:00;;;;;;;6.88;3.75;;;;;;;32.54;33.23;102316.94;5230691;28;20517;-45
2022/06/17 07:31:33;;;;;;;7.70;3.92;;;;;;;32.85;32.76;102304.28;5225374;28;20472;-47
2022/06/17 07:34:05;;;;;;;11.55;4.35;;;;;;;33.31;32.43;102318.22;5228166;28;20873;-44
2022/06/17 07:42:19;;;;;;;9.15;4.78;;;;;;;33.83;32.42;102322.00;5231269;28;20795;-47
2022/06/17 07:44:52;;;;;;;13.47;7.33;;;;;;;33.68;32.19;102329.06;5227436;28;20515;-47
2022/06/17 07:47:25;;;;;;;8.48;4.07;;;;;;;33.43;32.21;102327.03;5224562;28;20760;-49
2022/06/17 07:49:57;;;;;;;10.18;4.20;;;;;;;33.27;32.40;102325.34;5234265;28;20431;-48
2022/06/17 07:52:32;;;;;;;10.55;4.38;;;;;;;33.33;32.58;102318.78;5228308;28;20408;-52
2022/06/17 07:55:08;;;;;;;8.15;3.95;;;;;;;33.51;32.45;102314.75;5228174;28;20529;-48
2022/06/17 07:57:40;;;;;;;5.93;2.97;;;;;;;33.61;32.27;102314.00;5225424;28;20466;-50
2022/06/17 08:00:21;;;;;;;12.10;3.65;;;;;;;33.67;32.19;102323.88;5231020;28;20439;-47
2022/06/17 08:02:53;;;;;;;8.25;2.83;;;;;;;33.72;32.14;102321.13;5233065;28;20428;-47
2022/06/17 08:05:26;;;;;;;8.32;3.72;;;;;;;33.85;31.86;102325.28;5230448;28;20768;-49
2022/06/17 08:08:03;;;;;;;10.43;3.08;;;;;;;34.00;31.54;102316.25;5231076;28;20832;-47
2022/06/17 08:10:38;;;;;;;5.60;3.00;;;;;;;34.21;31.65;102317.94;5227993;28;20493;-48
2022/06/17 08:13:10;;;;;;;8.47;3.30;;;;;;;34.31;31.27;102323.44;5227892;28;20470;-46
2022/06/17 08:15:43;;;;;;;8.02;3.20;;;;;;;34.37;31.27;102333.31;5225458;28;20775;-51
2022/06/17 08:18:18;;;;;;;5.38;3.25;;;;;;;33.98;31.28;102320.09;5228182;28;20457;-47
2022/06/17 08:20:51;;;;;;;4.85;3.25;;;;;;;33.83;31.47;102333.78;5225169;28;20412;-48
2022/06/17 08:23:25;;;;;;;9.43;2.92;;;;;;;33.80;31.37;102337.06;5225209;28;20611;-49
2022/06/17 08:25:58;;;;;;;7.53;2.95;;;;;;;33.74;31.48;102329.91;5222661;28;20931;-49
2022/06/17 08:28:31;;;;;;;6.65;2.83;;;;;;;33.50;31.27;102313.13;5223883;28;20419;-48
2022/06/17 08:31:03;;;;;;;11.00;3.20;;;;;;;33.28;31.58;102321.50;5226296;28;20414;-45
2022/06/17 08:33:36;;;;;;;7.43;3.28;;;;;;;33.18;31.43;102305.03;5233814;28;20418;-48
2022/06/17 08:36:14;;;;;;;6.72;2.60;;;;;;;33.42;31.23;102322.66;5234020;28;20892;-49
2022/06/17 08:38:51;;;;;;;7.97;2.70;;;;;;;33.41;31.12;102315.53;5228519;28;20526;-47
2022/06/17 08:41:29;;;;;;;8.43;3.42;;;;;;;33.34;30.90;102298.53;5230326;28;20425;-49
2022/06/17 08:44:30;;;;;;;7.97;3.47;;;;;;;33.28;30.85;102310.56;5231682;28;20417;-46
2022/06/17 08:47:39;;;;;;;7.72;3.13;;;;;;;33.19;30.47;102312.16;5232437;28;20812;-47
2022/06/17 08:51:00;;;;;;;4.82;2.85;;;;;;;33.02;30.48;102302.22;5219186;28;20417;-49
2022/06/17 08:54:07;;;;;;;8.95;3.78;;;;;;;32.91;30.33;102318.81;5233784;28;20894;-47
2022/06/17 08:56:47;;;;;;;13.68;3.22;;;;;;;33.00;30.09;102315.34;5228073;28;20430;-49
2022/06/17 08:59:45;;;;;;;7.82;3.30;;;;;;;33.18;29.83;102326.94;5232591;28;20569;-48
2022/06/17 09:02:30;;;;;;;6.57;3.70;;;;;;;33.19;29.98;102332.13;5227452;28;20447;-47
2022/06/17 09:05:23;;;;;;;14.80;4.38;;;;;;;33.08;29.97;102321.41;5223243;28;20406;-48
2022/06/17 09:08:10;;;;;;;8.32;3.28;;;;;;;32.95;29.67;102325.41;5227441;28;28591;-47
2022/06/17 09:11:00;;;;;;;9.02;3.28;;;;;;;33.01;29.43;102325.19;5222520;28;20422;-47
2022/06/17 09:13:45;;;;;;;8.82;3.67;;;;;;;33.00;29.32;102314.53;5238429;28;20426;-49
2022/06/17 09:16:25;;;;;;;7.47;3.70;;;;;;;32.81;29.42;102327.78;5233011;28;20484;-47
2022/06/17 09:19:02;;;;;;;6.03;3.40;;;;;;;32.68;29.57;102328.25;5202416;28;20985;-48
2022/06/17 09:21:44;;;;;;;11.70;3.50;;;;;;;32.73;29.44;102331.00;5226127;28;20435;-48
2022/06/17 09:24:21;;;;;;;8.05;3.20;;;;;;;32.81;29.54;102325.06;5231171;28;20445;-46
2022/06/17 09:27:01;;;;;;;8.65;3.80;;;;;;;32.78;29.16;102296.31;5239124;28;20428;-47
2022/06/17 09:29:41;;;;;;;7.47;2.80;;;;;;;32.84;29.19;102317.13;5228086;28;22341;-46
2022/06/17 09:32:19;;;;;;;11.27;3.67;;;;;;;32.87;28.90;102320.44;5211660;28;20446;-49
2022/06/17 09:34:57;;;;;;;12.05;3.53;;;;;;;32.66;29.30;102319.47;5225594;28;20441;-44
2022/06/17 09:37:40;;;;;;;12.65;3.75;;;;;;;32.56;29.31;102310.13;5231180;28;20963;-50
2022/06/17 09:40:20;;;;;;;8.98;4.05;;;;;;;32.43;29.31;102304.25;5228002;28;20438;-46
2022/06/17 09:42:59;;;;;;;8.23;4.32;;;;;;;32.27;29.44;102284.13;5238053;28;20854;-49
2022/06/17 09:45:37;;;;;;;10.60;3.97;;;;;;;32.50;29.42;102316.63;5228925;28;20415;-47
2022/06/17 09:48:16;;;;;;;12.60;4.57;;;;;;;32.44;29.33;102306.75;5209665;28;21022;-45
2022/06/17 09:50:53;;;;;;;7.18;3.63;;;;;;;32.15;29.43;102287.91;5232711;28;20916;-48
2022/06/17 09:53:33;;;;;;;6.90;3.65;;;;;;;32.25;29.77;102302.72;5233636;28;20501;-46
2022/06/17 09:56:10;;;;;;;6.75;3.70;;;;;;;32.37;29.23;102317.06;5226461;28;20768;-48
2022/06/17 09:58:49;;;;;;;12.50;3.73;;;;;;;32.56;29.08;102318.31;5233412;28;20912;-45
2022/06/17 10:01:21;;;;;;;7.97;3.08;;;;;;;32.68;29.06;102296.25;5231031;28;20453;-47
2022/06/17 10:03:54;;;;;;;5.13;3.10;;;;;;;32.70;28.84;102271.34;5233422;28;20500;-48
2022/06/17 10:06:37;;;;;;;10.85;3.28;;;;;;;32.88;28.46;102284.59;5233574;28;20422;-48
2022/06/17 10:09:27;;;;;;;6.15;2.60;;;;;;;32.98;28.60;102278.38;5232635;28;20417;-46
2022/06/17 10:12:10;;;;;;;8.30;2.90;;;;;;;33.22;28.09;102262.34;5220249;28;22468;-45
2022/06/17 10:15:02;;;;;;;9.57;3.45;;;;;;;33.47;27.81;102264.34;5208820;28;22322;-51
2022/06/17 10:21:21;;;;;;;6.13;2.92;;;;;;;33.68;27.22;102233.19;5219595;28;20406;-45
2022/06/17 10:24:02;;;;;;;7.35;3.13;;;;;;;33.75;27.25;102246.59;5233249;28;21007;-46
2022/06/17 10:26:54;;;;;;;5.88;3.13;;;;;;;33.80;26.96;102243.88;5232460;28;20402;-46
2022/06/17 10:29:45;;;;;;;7.50;3.08;;;;;;;33.73;27.06;102251.56;5228204;28;20496;-46
2022/06/17 10:32:19;;;;;;;5.97;2.75;;;;;;;33.69;27.23;102242.22;5204384;28;20510;-47
2022/06/17 10:34:57;;;;;;;8.00;3.92;;;;;;;33.76;26.95;102251.00;5221331;28;20433;-49
2022/06/17 10:37:33;;;;;;;15.40;4.93;;;;;;;33.90;27.04;102252.09;5229908;28;20414;-51
2022/06/17 10:40:09;;;;;;;11.18;4.15;;;;;;;34.03;26.70;102255.44;5222196;28;20409;-49
2022/06/17 10:42:46;;;;;;;8.38;4.05;;;;;;;34.06;26.51;102244.72;5205527;28;20917;-45
2022/06/17 10:45:19;;;;;;;13.57;5.07;;;;;;;33.50;26.46;102171.50;5231632;28;20429;-48
2022/06/17 10:48:00;;;;;;;8.73;3.28;;;;;;;33.93;26.58;102245.25;5224161;28;20461;-51
2022/06/17 10:50:34;;;;;;;14.00;4.35;;;;;;;33.74;26.54;102239.50;5229166;28;20497;-49
2022/06/17 10:53:13;;;;;;;7.55;3.53;;;;;;;33.77;26.38;102247.16;5223900;28;20845;-49
2022/06/17 10:55:49;;;;;;;11.53;3.50;;;;;;;33.86;26.25;102234.56;5223875;28;20412;-44
2022/06/17 10:58:26;;;;;;;11.63;3.70;;;;;;;33.98;26.37;102237.88;5229213;28;20486;-46
2022/06/17 11:01:05;;;;;;;10.60;3.90;;;;;;;33.96;26.10;102248.28;5225542;28;20891;-49
2022/06/17 11:03:41;;;;;;;9.65;4.07;;;;;;;33.86;26.18;102231.84;5223822;28;21291;-47
2022/06/17 11:06:18;;;;;;;13.10;3.67;;;;;;;33.89;26.12;102222.25;5228196;28;20422;-44
2022/06/17 11:08:58;;;;;;;10.52;3.90;;;;;;;33.79;26.16;102209.38;5226595;28;20516;-49
2022/06/17 11:14:30;;;;;;;8.05;3.25;;;;;;;33.85;26.16;102221.13;5225561;28;20462;-49
2022/06/17 11:17:05;;;;;;;10.50;3.78;;;;;;;34.01;26.21;102202.78;5229993;28;20466;-49
2022/06/17 11:19:43;;;;;;;6.45;3.42;;;;;;;34.09;26.05;102191.28;5224639;28;20419;-48
2022/06/17 11:22:27;;;;;;;6.72;3.53;;;;;;;34.22;25.92;102184.41;5223709;28;20477;-45
2022/06/17 11:25:04;;;;;;;8.95;3.17;;;;;;;34.31;25.86;102188.22;5229576;28;20467;-49
2022/06/17 11:27:42;;;;;;;6.35;3.28;;;;;;;34.41;25.83;102172.59;5206096;28;20915;-47
2022/06/17 11:30:25;;;;;;;11.55;3.45;;;;;;;34.56;25.56;102181.88;5222634;28;20426;-50
2022/06/17 11:33:00;;;;;;;9.03;4.13;;;;;;;34.64;25.47;102173.91;5224742;28;20795;-45
2022/06/17 11:35:43;;;;;;;5.95;2.90;;;;;;;34.71;25.57;102176.34;5227674;28;20904;-46
2022/06/17 11:38:17;;;;;;;14.10;4.03;;;;;;;34.63;25.51;102160.47;5225940;28;20412;-45
2022/06/17 11:40:52;;;;;;;11.10;4.30;;;;;;;34.59;25.66;102164.84;5235850;28;20833;-46
2022/06/17 11:43:32;;;;;;;11.00;3.53;;;;;;;34.57;25.67;102167.09;5227465;28;20415;-46
2022/06/17 11:46:10;;;;;;;6.50;2.97;;;;;;;34.59;25.47;102175.84;5230320;28;20943;-48
2022/06/17 11:48:46;;;;;;;6.78;3.25;;;;;;;34.55;25.38;102169.28;5233348;28;20401;-49
2022/06/17 11:51:29;;;;;;;9.63;3.25;;;;;;;34.40;25.76;102176.41;5240169;28;20931;-49
2022/06/17 11:54:07;;;;;;;6.97;3.15;;;;;;;34.31;25.47;102180.00;5234333;28;20499;-48
2022/06/17 11:56:42;;;;;;;7.72;3.10;;;;;;;34.35;25.75;102175.63;5226193;28;20541;-47
2022/06/17 11:59:17;;;;;;;6.20;3.22;;;;;;;34.43;25.56;102175.03;5228761;28;20511;-47
2022/06/17 12:02:03;;;;;;;6.70;2.92;;;;;;;34.44;25.26;102182.19;5230726;28;20433;-50
2022/06/17 12:04:44;;;;;;;11.80;3.22;;;;;;;34.27;25.35;102163.28;5228720;28;20415;-50
2022/06/17 12:07:46;;;;;;;6.80;2.92;;;;;;;34.34;25.74;102177.53;5228169;28;20422;-48
2022/06/17 12:10:46;;;;;;;6.55;3.28;;;;;;;34.37;25.49;102171.47;5228870;28;20929;-50
2022/06/17 12:13:29;;;;;;;8.20;3.03;;;;;;;34.29;25.55;102161.09;5235320;28;20427;-45
2022/06/17 12:16:08;;;;;;;11.40;3.25;;;;;;;34.41;25.84;102158.06;5232737;28;20753;-48
2022/06/17 12:18:45;;;;;;;7.05;3.00;;;;;;;34.66;25.44;102176.38;5230054;28;20502;-49
2022/06/17 12:21:32;;;;;;;8.82;3.13;;;;;;;34.72;25.55;102163.44;5234878;28;20555;-47